sensor_id;sensor_type;location;lat;lon;timestamp;pressure;altitude;pressure_sealevel;temperature;humidity
51829;BME280;37881;48.024;8.774;2022-07-12T00:01:22;94523.91;;;13.39;73.12
51829;BME280;37881;48.024;8.774;2022-07-12T00:03:49;94527.41;;;13.16;73.90
51829;BME280;37881;48.024;8.774;2022-07-12T00:06:16;94525.78;;;13.19;73.75
51829;BME280;37881;48.024;8.774;2022-07-12T00:08:43;94526.53;;;13.23;73.68
51829;BME280;37881;48.024;8.774;2022-07-12T00:11:10;94531.25;;;13.23;73.92
51829;BME280;37881;48.024;8.774;2022-07-12T00:13:36;94536.81;;;13.19;73.61
51829;BME280;37881;48.024;8.774;2022-07-12T00:16:03;94531.72;;;13.17;74.03
51829;BME280;37881;48.024;8.774;2022-07-12T00:18:30;94531.34;;;13.15;73.62
51829;BME280;37881;48.024;8.774;2022-07-12T00:20:57;94538.13;;;13.11;73.66
51829;BME280;37881;48.024;8.774;2022-07-12T00:23:24;94537.03;;;13.05;74.47
51829;BME280;37881;48.024;8.774;2022-07-12T00:25:51;94539.72;;;12.81;74.81
51829;BME280;37881;48.024;8.774;2022-07-12T00:28:18;94539.31;;;12.83;74.09
51829;BME280;37881;48.024;8.774;2022-07-12T00:30:44;94536.41;;;12.66;73.96
51829;BME280;37881;48.024;8.774;2022-07-12T00:33:11;94533.13;;;12.75;74.46
51829;BME280;37881;48.024;8.774;2022-07-12T00:35:38;94538.19;;;12.80;73.75
51829;BME280;37881;48.024;8.774;2022-07-12T00:38:04;94537.34;;;12.83;74.05
51829;BME280;37881;48.024;8.774;2022-07-12T00:40:31;94534.22;;;12.81;74.07
51829;BME280;37881;48.024;8.774;2022-07-12T00:42:58;94533.53;;;12.73;73.63
51829;BME280;37881;48.024;8.774;2022-07-12T00:45:25;94535.50;;;12.73;73.62
51829;BME280;37881;48.024;8.774;2022-07-12T00:47:52;94536.41;;;12.66;74.12
51829;BME280;37881;48.024;8.774;2022-07-12T00:50:23;94535.66;;;12.62;73.93
51829;BME280;37881;48.024;8.774;2022-07-12T00:52:52;94541.66;;;12.53;73.82
51829;BME280;37881;48.024;8.774;2022-07-12T00:55:20;94529.50;;;12.51;73.61
51829;BME280;37881;48.024;8.774;2022-07-12T00:57:48;94527.97;;;12.50;74.00
51829;BME280;37881;48.024;8.774;2022-07-12T01:00:21;94522.50;;;12.46;73.65
51829;BME280;37881;48.024;8.774;2022-07-12T01:02:49;94521.72;;;12.46;73.83
51829;BME280;37881;48.024;8.774;2022-07-12T01:05:17;94526.56;;;12.34;73.84
51829;BME280;37881;48.024;8.774;2022-07-12T01:07:45;94521.88;;;12.31;73.76
51829;BME280;37881;48.024;8.774;2022-07-12T01:10:12;94528.25;;;12.25;74.31
51829;BME280;37881;48.024;8.774;2022-07-12T01:12:38;94528.28;;;12.21;74.77
51829;BME280;37881;48.024;8.774;2022-07-12T01:15:07;94525.53;;;12.21;75.09
51829;BME280;37881;48.024;8.774;2022-07-12T01:17:34;94523.63;;;12.18;75.77
51829;BME280;37881;48.024;8.774;2022-07-12T01:20:03;94526.75;;;12.20;76.43
51829;BME280;37881;48.024;8.774;2022-07-12T01:22:36;94522.41;;;12.19;75.85
51829;BME280;37881;48.024;8.774;2022-07-12T01:25:04;94525.59;;;12.17;76.31
51829;BME280;37881;48.024;8.774;2022-07-12T01:27:31;94530.31;;;12.17;76.45
51829;BME280;37881;48.024;8.774;2022-07-12T01:30:01;94530.78;;;12.12;76.56
51829;BME280;37881;48.024;8.774;2022-07-12T01:32:27;94528.81;;;12.09;77.12
51829;BME280;37881;48.024;8.774;2022-07-12T01:35:01;94534.72;;;12.07;76.99
51829;BME280;37881;48.024;8.774;2022-07-12T01:37:29;94533.97;;;12.07;76.52
51829;BME280;37881;48.024;8.774;2022-07-12T01:39:57;94530.47;;;12.03;76.72
51829;BME280;37881;48.024;8.774;2022-07-12T01:42:27;94531.25;;;12.03;77.00
51829;BME280;37881;48.024;8.774;2022-07-12T01:44:55;94527.75;;;11.99;77.31
51829;BME280;37881;48.024;8.774;2022-07-12T01:47:25;94527.09;;;11.84;77.89
51829;BME280;37881;48.024;8.774;2022-07-12T01:49:52;94525.09;;;11.92;77.66
51829;BME280;37881;48.024;8.774;2022-07-12T01:52:19;94522.34;;;11.92;77.99
51829;BME280;37881;48.024;8.774;2022-07-12T01:54:46;94523.84;;;11.96;77.33
51829;BME280;37881;48.024;8.774;2022-07-12T01:57:13;94519.59;;;11.88;77.46
51829;BME280;37881;48.024;8.774;2022-07-12T01:59:41;94520.16;;;11.72;77.77
51829;BME280;37881;48.024;8.774;2022-07-12T02:02:08;94523.28;;;11.71;78.11
51829;BME280;37881;48.024;8.774;2022-07-12T02:04:35;94513.91;;;11.68;78.12
51829;BME280;37881;48.024;8.774;2022-07-12T02:07:04;94519.53;;;11.54;78.59
51829;BME280;37881;48.024;8.774;2022-07-12T02:09:31;94526.53;;;11.62;78.38
51829;BME280;37881;48.024;8.774;2022-07-12T02:11:58;94523.75;;;11.66;78.27
51829;BME280;37881;48.024;8.774;2022-07-12T02:14:25;94521.03;;;11.62;78.08
51829;BME280;37881;48.024;8.774;2022-07-12T02:16:53;94522.25;;;11.57;78.47
51829;BME280;37881;48.024;8.774;2022-07-12T02:19:19;94517.88;;;11.64;78.17
51829;BME280;37881;48.024;8.774;2022-07-12T02:21:46;94522.19;;;11.65;77.89
51829;BME280;37881;48.024;8.774;2022-07-12T02:24:13;94520.25;;;11.62;78.47
51829;BME280;37881;48.024;8.774;2022-07-12T02:26:40;94512.81;;;11.58;77.83
51829;BME280;37881;48.024;8.774;2022-07-12T02:29:07;94519.91;;;11.56;78.09
51829;BME280;37881;48.024;8.774;2022-07-12T02:31:34;94526.16;;;11.60;78.02
51829;BME280;37881;48.024;8.774;2022-07-12T02:34:00;94526.59;;;11.55;77.78
51829;BME280;37881;48.024;8.774;2022-07-12T02:36:27;94523.34;;;11.22;77.68
51829;BME280;37881;48.024;8.774;2022-07-12T02:38:54;94521.28;;;11.33;77.46
51829;BME280;37881;48.024;8.774;2022-07-12T02:41:21;94526.75;;;11.37;77.62
51829;BME280;37881;48.024;8.774;2022-07-12T02:43:48;94520.91;;;11.35;77.20
51829;BME280;37881;48.024;8.774;2022-07-12T02:46:15;94526.09;;;11.22;77.46
51829;BME280;37881;48.024;8.774;2022-07-12T02:48:42;94520.72;;;11.08;77.51
51829;BME280;37881;48.024;8.774;2022-07-12T02:51:09;94523.84;;;11.06;78.02
51829;BME280;37881;48.024;8.774;2022-07-12T02:53:37;94521.09;;;11.10;78.36
51829;BME280;37881;48.024;8.774;2022-07-12T02:56:07;94527.41;;;11.03;78.63
51829;BME280;37881;48.024;8.774;2022-07-12T02:58:36;94528.94;;;11.08;78.73
51829;BME280;37881;48.024;8.774;2022-07-12T03:01:03;94530.16;;;11.07;78.61
51829;BME280;37881;48.024;8.774;2022-07-12T03:03:30;94525.34;;;11.14;79.08
51829;BME280;37881;48.024;8.774;2022-07-12T03:05:57;94522.22;;;11.12;78.96
51829;BME280;37881;48.024;8.774;2022-07-12T03:08:24;94532.44;;;11.12;79.07
51829;BME280;37881;48.024;8.774;2022-07-12T03:10:51;94526.19;;;11.11;79.18
51829;BME280;37881;48.024;8.774;2022-07-12T03:13:18;94531.66;;;11.11;79.30
51829;BME280;37881;48.024;8.774;2022-07-12T03:15:45;94530.09;;;11.10;79.44
51829;BME280;37881;48.024;8.774;2022-07-12T03:18:16;94539.56;;;11.02;79.82
51829;BME280;37881;48.024;8.774;2022-07-12T03:20:46;94539.25;;;10.93;80.20
51829;BME280;37881;48.024;8.774;2022-07-12T03:23:15;94542.78;;;10.90;80.41
51829;BME280;37881;48.024;8.774;2022-07-12T03:25:41;94536.13;;;10.91;80.08
51829;BME280;37881;48.024;8.774;2022-07-12T03:28:09;94535.75;;;10.89;80.67
51829;BME280;37881;48.024;8.774;2022-07-12T03:30:37;94541.69;;;10.76;81.75
51829;BME280;37881;48.024;8.774;2022-07-12T03:33:04;94542.50;;;10.73;81.89
51829;BME280;37881;48.024;8.774;2022-07-12T03:35:30;94544.03;;;10.78;81.47
51829;BME280;37881;48.024;8.774;2022-07-12T03:37:57;94547.53;;;10.82;81.70
51829;BME280;37881;48.024;8.774;2022-07-12T03:40:24;94553.41;;;10.88;81.58
51829;BME280;37881;48.024;8.774;2022-07-12T03:42:52;94549.88;;;10.91;81.44
51829;BME280;37881;48.024;8.774;2022-07-12T03:45:19;94549.88;;;10.91;81.83
51829;BME280;37881;48.024;8.774;2022-07-12T03:47:47;94549.03;;;10.94;81.57
51829;BME280;37881;48.024;8.774;2022-07-12T03:50:14;94551.09;;;10.79;80.72
51829;BME280;37881;48.024;8.774;2022-07-12T03:52:42;94549.53;;;10.78;80.47
51829;BME280;37881;48.024;8.774;2022-07-12T03:55:10;94559.34;;;10.83;79.78
51829;BME280;37881;48.024;8.774;2022-07-12T03:57:37;94562.06;;;10.83;80.12
51829;BME280;37881;48.024;8.774;2022-07-12T04:00:06;94560.84;;;10.91;79.70
51829;BME280;37881;48.024;8.774;2022-07-12T04:02:39;94558.47;;;10.93;79.43
51829;BME280;37881;48.024;8.774;2022-07-12T04:05:07;94558.44;;;10.96;79.20
51829;BME280;37881;48.024;8.774;2022-07-12T04:07:34;94569.50;;;10.82;79.58
51829;BME280;37881;48.024;8.774;2022-07-12T04:10:02;94562.50;;;10.77;79.48
51829;BME280;37881;48.024;8.774;2022-07-12T04:12:29;94561.72;;;10.73;79.98
51829;BME280;37881;48.024;8.774;2022-07-12T04:14:56;94554.34;;;10.59;81.21
51829;BME280;37881;48.024;8.774;2022-07-12T04:17:22;94559.13;;;10.45;83.17
51829;BME280;37881;48.024;8.774;2022-07-12T04:19:49;94557.94;;;10.42;83.68
51829;BME280;37881;48.024;8.774;2022-07-12T04:22:16;94563.72;;;10.69;82.64
51829;BME280;37881;48.024;8.774;2022-07-12T04:24:43;94553.03;;;10.86;82.08
51829;BME280;37881;48.024;8.774;2022-07-12T04:27:10;94565.97;;;10.89;81.54
51829;BME280;37881;48.024;8.774;2022-07-12T04:29:37;94563.53;;;11.02;81.15
51829;BME280;37881;48.024;8.774;2022-07-12T04:32:04;94570.81;;;11.23;80.46
51829;BME280;37881;48.024;8.774;2022-07-12T04:34:30;94562.91;;;11.32;79.20
51829;BME280;37881;48.024;8.774;2022-07-12T04:36:57;94569.19;;;11.32;78.68
51829;BME280;37881;48.024;8.774;2022-07-12T04:39:24;94569.13;;;11.39;78.29
51829;BME280;37881;48.024;8.774;2022-07-12T04:41:51;94566.75;;;11.42;78.48
51829;BME280;37881;48.024;8.774;2022-07-12T04:44:17;94568.28;;;11.46;78.67
51829;BME280;37881;48.024;8.774;2022-07-12T04:46:44;94567.44;;;11.53;78.39
51829;BME280;37881;48.024;8.774;2022-07-12T04:49:11;94559.00;;;11.33;77.95
51829;BME280;37881;48.024;8.774;2022-07-12T04:51:38;94565.28;;;11.30;77.65
51829;BME280;37881;48.024;8.774;2022-07-12T04:54:05;94565.91;;;11.52;76.70
51829;BME280;37881;48.024;8.774;2022-07-12T04:56:31;94570.25;;;11.49;76.97
51829;BME280;37881;48.024;8.774;2022-07-12T04:58:58;94570.25;;;11.46;76.93
51829;BME280;37881;48.024;8.774;2022-07-12T05:01:28;94571.53;;;11.34;78.03
51829;BME280;37881;48.024;8.774;2022-07-12T05:03:55;94582.53;;;11.34;79.24
51829;BME280;37881;48.024;8.774;2022-07-12T05:06:22;94588.59;;;11.11;80.79
51829;BME280;37881;48.024;8.774;2022-07-12T05:08:52;94585.50;;;10.98;81.05
51829;BME280;37881;48.024;8.774;2022-07-12T05:11:19;94580.75;;;11.09;81.53
51829;BME280;37881;48.024;8.774;2022-07-12T05:13:46;94580.66;;;11.16;81.77
51829;BME280;37881;48.024;8.774;2022-07-12T05:16:13;94580.03;;;11.50;81.42
51829;BME280;37881;48.024;8.774;2022-07-12T05:18:40;94581.31;;;11.87;80.45
51829;BME280;37881;48.024;8.774;2022-07-12T05:21:08;94585.13;;;11.97;80.41
51829;BME280;37881;48.024;8.774;2022-07-12T05:23:34;94580.38;;;12.01;80.13
51829;BME280;37881;48.024;8.774;2022-07-12T05:26:01;94585.59;;;11.88;79.81
51829;BME280;37881;48.024;8.774;2022-07-12T05:28:28;94583.00;;;12.15;79.33
51829;BME280;37881;48.024;8.774;2022-07-12T05:30:55;94585.84;;;14.06;72.11
51829;BME280;37881;48.024;8.774;2022-07-12T05:33:22;94583.34;;;17.14;61.06
51829;BME280;37881;48.024;8.774;2022-07-12T05:35:49;94575.81;;;19.05;54.92
51829;BME280;37881;48.024;8.774;2022-07-12T05:38:16;94572.59;;;19.38;52.82
51829;BME280;37881;48.024;8.774;2022-07-12T05:40:42;94562.88;;;19.83;51.97
51829;BME280;37881;48.024;8.774;2022-07-12T05:43:09;94564.19;;;20.19;50.99
51829;BME280;37881;48.024;8.774;2022-07-12T05:45:36;94571.03;;;20.64;49.23
51829;BME280;37881;48.024;8.774;2022-07-12T05:48:03;94567.28;;;18.77;54.77
51829;BME280;37881;48.024;8.774;2022-07-12T05:50:30;94568.81;;;20.13;51.57
51829;BME280;37881;48.024;8.774;2022-07-12T05:52:56;94576.00;;;21.58;47.61
51829;BME280;37881;48.024;8.774;2022-07-12T05:55:41;94582.81;;;22.48;45.44
51829;BME280;37881;48.024;8.774;2022-07-12T05:58:08;94582.28;;;23.57;43.27
51829;BME280;37881;48.024;8.774;2022-07-12T06:00:35;94583.59;;;24.68;41.67
51829;BME280;37881;48.024;8.774;2022-07-12T06:03:02;94570.28;;;25.99;38.67
51829;BME280;37881;48.024;8.774;2022-07-12T06:05:29;94581.22;;;25.91;37.99
51829;BME280;37881;48.024;8.774;2022-07-12T06:07:56;94589.09;;;25.87;38.36
51829;BME280;37881;48.024;8.774;2022-07-12T06:10:23;94581.66;;;27.53;34.71
51829;BME280;37881;48.024;8.774;2022-07-12T06:12:50;94580.34;;;29.03;33.34
51829;BME280;37881;48.024;8.774;2022-07-12T06:15:17;94591.69;;;27.88;33.80
51829;BME280;37881;48.024;8.774;2022-07-12T06:17:44;94588.00;;;29.14;32.42
51829;BME280;37881;48.024;8.774;2022-07-12T06:20:11;94581.91;;;28.98;32.75
51829;BME280;37881;48.024;8.774;2022-07-12T06:22:38;94596.31;;;27.91;34.06
51829;BME280;37881;48.024;8.774;2022-07-12T06:25:05;94580.34;;;29.03;32.93
51829;BME280;37881;48.024;8.774;2022-07-12T06:27:52;94593.34;;;29.28;32.46
51829;BME280;37881;48.024;8.774;2022-07-12T06:30:20;94599.97;;;28.78;33.34
51829;BME280;37881;48.024;8.774;2022-07-12T06:32:48;94595.91;;;28.68;33.89
51829;BME280;37881;48.024;8.774;2022-07-12T06:35:16;94592.66;;;30.19;32.22
51829;BME280;37881;48.024;8.774;2022-07-12T06:37:43;94600.38;;;30.49;31.26
51829;BME280;37881;48.024;8.774;2022-07-12T06:40:11;94600.84;;;29.20;32.93
51829;BME280;37881;48.024;8.774;2022-07-12T06:42:38;94601.00;;;30.85;30.57
51829;BME280;37881;48.024;8.774;2022-07-12T06:45:05;94593.91;;;28.46;32.26
51829;BME280;37881;48.024;8.774;2022-07-12T06:47:32;94593.78;;;28.85;32.81
51829;BME280;37881;48.024;8.774;2022-07-12T06:49:59;94591.03;;;30.54;30.70
51829;BME280;37881;48.024;8.774;2022-07-12T06:52:26;94601.59;;;32.37;28.39
51829;BME280;37881;48.024;8.774;2022-07-12T06:54:58;94602.53;;;32.59;27.47
51829;BME280;37881;48.024;8.774;2022-07-12T06:57:25;94600.09;;;28.27;33.75
51829;BME280;37881;48.024;8.774;2022-07-12T06:59:53;94597.59;;;30.43;30.31
51829;BME280;37881;48.024;8.774;2022-07-12T07:02:21;94589.66;;;31.48;27.77
51829;BME280;37881;48.024;8.774;2022-07-12T07:04:48;94602.75;;;25.37;37.18
51829;BME280;37881;48.024;8.774;2022-07-12T07:07:15;94597.25;;;28.50;32.57
51829;BME280;37881;48.024;8.774;2022-07-12T07:09:42;94597.44;;;29.27;31.54
51829;BME280;37881;48.024;8.774;2022-07-12T07:12:08;94605.75;;;27.82;33.02
51829;BME280;37881;48.024;8.774;2022-07-12T07:14:35;94597.25;;;27.26;34.76
51829;BME280;37881;48.024;8.774;2022-07-12T07:17:02;94607.34;;;27.89;33.48
51829;BME280;37881;48.024;8.774;2022-07-12T07:19:30;94599.84;;;29.06;32.34
51829;BME280;37881;48.024;8.774;2022-07-12T07:21:57;94615.22;;;26.74;34.66
51829;BME280;37881;48.024;8.774;2022-07-12T07:24:25;94607.31;;;28.12;32.88
51829;BME280;37881;48.024;8.774;2022-07-12T07:26:52;94617.81;;;27.66;33.11
51829;BME280;37881;48.024;8.774;2022-07-12T07:29:24;94610.63;;;27.76;33.14
51829;BME280;37881;48.024;8.774;2022-07-12T07:32:10;94617.09;;;26.88;34.06
51829;BME280;37881;48.024;8.774;2022-07-12T07:34:37;94611.69;;;28.99;31.31
51829;BME280;37881;48.024;8.774;2022-07-12T07:37:04;94613.69;;;27.56;33.25
51829;BME280;37881;48.024;8.774;2022-07-12T07:39:31;94620.66;;;27.94;31.99
51829;BME280;37881;48.024;8.774;2022-07-12T07:41:57;94622.69;;;28.27;32.14
51829;BME280;37881;48.024;8.774;2022-07-12T07:44:24;94621.91;;;27.76;32.40
51829;BME280;37881;48.024;8.774;2022-07-12T07:46:59;94620.91;;;29.11;30.07
51829;BME280;37881;48.024;8.774;2022-07-12T07:49:26;94629.66;;;29.60;30.11
51829;BME280;37881;48.024;8.774;2022-07-12T07:51:53;94625.88;;;30.49;28.77
51829;BME280;37881;48.024;8.774;2022-07-12T07:54:20;94633.94;;;30.09;29.14
51829;BME280;37881;48.024;8.774;2022-07-12T07:56:46;94635.72;;;31.54;28.13
51829;BME280;37881;48.024;8.774;2022-07-12T07:59:13;94629.81;;;34.11;24.00
51829;BME280;37881;48.024;8.774;2022-07-12T08:01:40;94626.72;;;32.33;26.13
51829;BME280;37881;48.024;8.774;2022-07-12T08:04:13;94618.22;;;29.77;29.70
51829;BME280;37881;48.024;8.774;2022-07-12T08:06:40;94618.19;;;30.13;29.46
51829;BME280;37881;48.024;8.774;2022-07-12T08:09:08;94622.91;;;28.46;31.27
51829;BME280;37881;48.024;8.774;2022-07-12T08:11:39;94619.56;;;28.37;31.79
51829;BME280;37881;48.024;8.774;2022-07-12T08:14:07;94629.16;;;27.00;33.99
51829;BME280;37881;48.024;8.774;2022-07-12T08:16:35;94623.09;;;29.82;29.61
51829;BME280;37881;48.024;8.774;2022-07-12T08:19:03;94623.22;;;29.96;29.46
51829;BME280;37881;48.024;8.774;2022-07-12T08:21:30;94627.09;;;29.57;29.44
51829;BME280;37881;48.024;8.774;2022-07-12T08:23:57;94626.56;;;25.21;36.99
51829;BME280;37881;48.024;8.774;2022-07-12T08:26:24;94626.88;;;27.04;33.87
51829;BME280;37881;48.024;8.774;2022-07-12T08:28:51;94628.31;;;27.54;32.70
51829;BME280;37881;48.024;8.774;2022-07-12T08:31:18;94628.34;;;28.16;32.30
51829;BME280;37881;48.024;8.774;2022-07-12T08:33:45;94626.59;;;30.24;28.81
51829;BME280;37881;48.024;8.774;2022-07-12T08:36:12;94609.69;;;30.68;27.84
51829;BME280;37881;48.024;8.774;2022-07-12T08:38:39;94616.00;;;27.46;32.46
51829;BME280;37881;48.024;8.774;2022-07-12T08:41:07;94624.00;;;28.04;32.43
51829;BME280;37881;48.024;8.774;2022-07-12T08:43:36;94616.50;;;30.78;28.31
51829;BME280;37881;48.024;8.774;2022-07-12T08:46:07;94604.84;;;33.48;24.98
51829;BME280;37881;48.024;8.774;2022-07-12T08:48:34;94612.69;;;33.08;25.16
51829;BME280;37881;48.024;8.774;2022-07-12T08:51:12;94613.34;;;33.00;24.94
51829;BME280;37881;48.024;8.774;2022-07-12T08:53:40;94619.22;;;32.03;26.55
51829;BME280;37881;48.024;8.774;2022-07-12T08:56:30;94612.25;;;31.15;27.04
51829;BME280;37881;48.024;8.774;2022-07-12T08:59:21;94617.97;;;29.34;29.48
51829;BME280;37881;48.024;8.774;2022-07-12T09:01:49;94618.03;;;28.58;30.83
51829;BME280;37881;48.024;8.774;2022-07-12T09:06:45;94621.94;;;25.96;34.78
51829;BME280;37881;48.024;8.774;2022-07-12T09:09:26;94618.56;;;26.29;34.70
51829;BME280;37881;48.024;8.774;2022-07-12T09:11:54;94630.94;;;26.92;33.16
51829;BME280;37881;48.024;8.774;2022-07-12T09:14:21;94628.50;;;27.28;31.73
51829;BME280;37881;48.024;8.774;2022-07-12T09:17:06;94634.59;;;27.15;32.63
51829;BME280;37881;48.024;8.774;2022-07-12T09:19:36;94641.84;;;27.27;31.84
51829;BME280;37881;48.024;8.774;2022-07-12T09:22:05;94634.06;;;29.92;28.80
51829;BME280;37881;48.024;8.774;2022-07-12T09:24:39;94632.94;;;32.64;24.17
51829;BME280;37881;48.024;8.774;2022-07-12T09:27:06;94643.13;;;28.79;28.60
51829;BME280;37881;48.024;8.774;2022-07-12T09:29:46;94646.03;;;28.17;30.09
51829;BME280;37881;48.024;8.774;2022-07-12T09:32:13;94634.97;;;27.51;32.28
51829;BME280;37881;48.024;8.774;2022-07-12T09:34:59;94640.91;;;26.87;31.72
51829;BME280;37881;48.024;8.774;2022-07-12T09:37:44;94631.06;;;29.37;27.98
51829;BME280;37881;48.024;8.774;2022-07-12T09:40:12;94632.84;;;31.16;25.60
51829;BME280;37881;48.024;8.774;2022-07-12T09:42:40;94627.31;;;34.70;22.46
51829;BME280;37881;48.024;8.774;2022-07-12T09:45:07;94639.97;;;29.52;27.91
51829;BME280;37881;48.024;8.774;2022-07-12T09:47:35;94631.78;;;33.47;24.29
51829;BME280;37881;48.024;8.774;2022-07-12T09:50:03;94630.47;;;31.20;25.61
51829;BME280;37881;48.024;8.774;2022-07-12T09:52:32;94621.91;;;31.25;25.29
51829;BME280;37881;48.024;8.774;2022-07-12T09:55:00;94623.09;;;32.19;24.97
51829;BME280;37881;48.024;8.774;2022-07-12T09:57:32;94620.09;;;33.85;22.82
51829;BME280;37881;48.024;8.774;2022-07-12T10:00:01;94623.63;;;31.53;24.31
51829;BME280;37881;48.024;8.774;2022-07-12T10:02:28;94624.41;;;30.06;26.78
51829;BME280;37881;48.024;8.774;2022-07-12T10:04:56;94627.59;;;29.08;28.74
51829;BME280;37881;48.024;8.774;2022-07-12T10:07:25;94631.38;;;28.52;29.88
51829;BME280;37881;48.024;8.774;2022-07-12T10:09:53;94632.69;;;28.28;29.59
51829;BME280;37881;48.024;8.774;2022-07-12T10:12:22;94633.66;;;28.65;29.25
51829;BME280;37881;48.024;8.774;2022-07-12T10:14:55;94637.56;;;28.39;29.71
51829;BME280;37881;48.024;8.774;2022-07-12T10:17:24;94631.00;;;30.99;27.11
51829;BME280;37881;48.024;8.774;2022-07-12T10:20:17;94637.66;;;31.21;26.65
51829;BME280;37881;48.024;8.774;2022-07-12T10:22:45;94642.50;;;29.14;29.54
51829;BME280;37881;48.024;8.774;2022-07-12T10:25:29;94643.78;;;29.07;29.58
51829;BME280;37881;48.024;8.774;2022-07-12T10:27:58;94645.06;;;29.06;29.52
51829;BME280;37881;48.024;8.774;2022-07-12T10:30:25;94646.16;;;28.98;29.24
51829;BME280;37881;48.024;8.774;2022-07-12T10:32:55;94643.03;;;31.24;26.65
51829;BME280;37881;48.024;8.774;2022-07-12T10:35:26;94651.44;;;27.92;30.61
51829;BME280;37881;48.024;8.774;2022-07-12T10:40:39;94638.38;;;31.84;25.36
51829;BME280;37881;48.024;8.774;2022-07-12T10:45:41;94637.88;;;31.04;26.23
51829;BME280;37881;48.024;8.774;2022-07-12T10:53:34;94629.03;;;30.09;27.10
51829;BME280;37881;48.024;8.774;2022-07-12T10:58:36;94626.78;;;28.43;29.92
51829;BME280;37881;48.024;8.774;2022-07-12T11:01:08;94634.25;;;26.96;33.31
51829;BME280;37881;48.024;8.774;2022-07-12T11:03:41;94629.81;;;26.29;32.39
51829;BME280;37881;48.024;8.774;2022-07-12T11:06:13;94623.31;;;26.55;33.70
51829;BME280;37881;48.024;8.774;2022-07-12T11:08:50;94623.97;;;25.38;33.68
51829;BME280;37881;48.024;8.774;2022-07-12T11:11:18;94616.09;;;26.05;32.72
51829;BME280;37881;48.024;8.774;2022-07-12T11:13:45;94622.03;;;27.10;31.51
51829;BME280;37881;48.024;8.774;2022-07-12T11:16:12;94618.84;;;27.74;30.12
51829;BME280;37881;48.024;8.774;2022-07-12T11:18:39;94609.09;;;28.15;29.43
51829;BME280;37881;48.024;8.774;2022-07-12T11:21:06;94607.09;;;28.96;29.88
51829;BME280;37881;48.024;8.774;2022-07-12T11:23:33;94604.00;;;29.47;28.20
51829;BME280;37881;48.024;8.774;2022-07-12T11:26:02;94607.13;;;28.91;28.81
51829;BME280;37881;48.024;8.774;2022-07-12T11:28:31;94609.81;;;27.25;31.00
51829;BME280;37881;48.024;8.774;2022-07-12T11:33:36;94612.97;;;28.12;29.92
51829;BME280;37881;48.024;8.774;2022-07-12T11:36:05;94617.03;;;26.72;31.47
51829;BME280;37881;48.024;8.774;2022-07-12T11:38:33;94622.63;;;26.60;32.46
51829;BME280;37881;48.024;8.774;2022-07-12T11:41:10;94616.38;;;25.76;34.31
51829;BME280;37881;48.024;8.774;2022-07-12T11:43:37;94614.06;;;27.03;32.71
51829;BME280;37881;48.024;8.774;2022-07-12T11:46:05;94624.00;;;28.15;31.16
51829;BME280;37881;48.024;8.774;2022-07-12T11:48:32;94605.44;;;28.48;30.90
51829;BME280;37881;48.024;8.774;2022-07-12T11:51:07;94601.88;;;28.31;29.39
51829;BME280;37881;48.024;8.774;2022-07-12T11:53:36;94603.63;;;28.67;29.80
51829;BME280;37881;48.024;8.774;2022-07-12T11:56:06;94600.97;;;28.92;28.07
51829;BME280;37881;48.024;8.774;2022-07-12T11:58:33;94600.38;;;28.29;30.06
51829;BME280;37881;48.024;8.774;2022-07-12T12:01:04;94604.00;;;27.96;29.82
51829;BME280;37881;48.024;8.774;2022-07-12T12:03:43;94607.31;;;27.61;28.90
51829;BME280;37881;48.024;8.774;2022-07-12T12:06:12;94604.22;;;27.59;29.26
51829;BME280;37881;48.024;8.774;2022-07-12T12:08:39;94602.19;;;28.16;28.39
51829;BME280;37881;48.024;8.774;2022-07-12T12:11:06;94607.25;;;27.27;31.79
51829;BME280;37881;48.024;8.774;2022-07-12T12:13:32;94602.88;;;25.80;33.14
51829;BME280;37881;48.024;8.774;2022-07-12T12:16:01;94606.56;;;25.34;33.15
51829;BME280;37881;48.024;8.774;2022-07-12T12:18:39;94607.25;;;24.61;33.92
51829;BME280;37881;48.024;8.774;2022-07-12T12:21:12;94606.34;;;26.44;31.12
51829;BME280;37881;48.024;8.774;2022-07-12T12:23:41;94600.38;;;28.13;29.37
51829;BME280;37881;48.024;8.774;2022-07-12T12:26:18;94590.38;;;28.00;28.72
51829;BME280;37881;48.024;8.774;2022-07-12T12:28:49;94598.69;;;28.79;28.36
51829;BME280;37881;48.024;8.774;2022-07-12T12:31:20;94593.72;;;29.02;28.22
51829;BME280;37881;48.024;8.774;2022-07-12T12:33:52;94595.53;;;28.02;27.98
51829;BME280;37881;48.024;8.774;2022-07-12T12:36:35;94595.34;;;28.75;27.96
51829;BME280;37881;48.024;8.774;2022-07-12T12:39:03;94594.94;;;29.18;27.62
51829;BME280;37881;48.024;8.774;2022-07-12T12:41:38;94587.22;;;29.19;26.91
51829;BME280;37881;48.024;8.774;2022-07-12T12:44:06;94599.47;;;26.99;29.26
51829;BME280;37881;48.024;8.774;2022-07-12T12:46:49;94596.94;;;28.71;27.39
51829;BME280;37881;48.024;8.774;2022-07-12T12:49:17;94578.47;;;29.22;26.53
51829;BME280;37881;48.024;8.774;2022-07-12T12:51:52;94585.94;;;29.20;26.21
51829;BME280;37881;48.024;8.774;2022-07-12T12:56:59;94580.41;;;28.92;26.68
51829;BME280;37881;48.024;8.774;2022-07-12T12:59:26;94578.16;;;28.73;27.14
51829;BME280;37881;48.024;8.774;2022-07-12T13:01:53;94576.94;;;28.63;28.08
51829;BME280;37881;48.024;8.774;2022-07-12T13:04:20;94576.28;;;28.93;28.59
51829;BME280;37881;48.024;8.774;2022-07-12T13:06:46;94571.34;;;28.52;28.73
51829;BME280;37881;48.024;8.774;2022-07-12T13:09:13;94580.78;;;28.65;28.69
51829;BME280;37881;48.024;8.774;2022-07-12T13:11:40;94577.06;;;27.67;29.36
51829;BME280;37881;48.024;8.774;2022-07-12T13:14:07;94568.22;;;28.49;28.25
51829;BME280;37881;48.024;8.774;2022-07-12T13:16:33;94571.91;;;27.60;30.06
51829;BME280;37881;48.024;8.774;2022-07-12T13:19:00;94584.66;;;27.21;30.12
51829;BME280;37881;48.024;8.774;2022-07-12T13:21:27;94572.03;;;26.94;30.82
51829;BME280;37881;48.024;8.774;2022-07-12T13:23:53;94579.09;;;27.83;28.13
51829;BME280;37881;48.024;8.774;2022-07-12T13:26:20;94573.47;;;27.72;28.22
51829;BME280;37881;48.024;8.774;2022-07-12T13:28:47;94581.13;;;27.55;28.13